This is the latest recevied weather packets stored in our database for station/object DK6GC-10. If no packets are shown the sender has not sent any weather packets the latest 10 day(s).
| Time | Temp. | Humidity | Pressure | Rain* | Wind** | Luminosity | Snow |
|---|---|---|---|---|---|---|---|
| 1787414423 | 21.11° C | 53% | 1021.7 hPa | - | - | - | - |
| 1787413523 | 22.22° C | 46% | 1021.7 hPa | - | - | - | - |
| 1787412622 | 21.67° C | 49% | 1021.7 hPa | - | - | - | - |
| 1787411722 | 21.11° C | 53% | 1021.7 hPa | - | - | - | - |
| 1787410822 | 22.78° C | 47% | 1021.7 hPa | - | - | - | - |
| 1787409922 | 23.33° C | 50% | 1021.7 hPa | - | - | - | - |
| 1787409022 | 22.78° C | 52% | 1021.7 hPa | - | - | - | - |
| 1787408122 | 22.22° C | 52% | 1021.8 hPa | - | - | - | - |
| 1787407221 | 21.11° C | 54% | 1021.9 hPa | - | - | - | - |
| 1787406321 | 21.11° C | 54% | 1021.8 hPa | - | - | - | - |
| 1787405421 | 23.33° C | 49% | 1021.8 hPa | - | - | - | - |
| 1787404520 | 22.22° C | 53% | 1021.8 hPa | - | - | - | - |
| 1787403620 | 20.56° C | 55% | 1021.7 hPa | - | - | - | - |
| 1787402719 | 22.22° C | 55% | 1021.6 hPa | - | - | - | - |
| 1787401819 | 22.78° C | 54% | 1021.7 hPa | - | - | - | - |
| 1787400919 | 21.11° C | 60% | 1021.7 hPa | - | - | - | - |
| 1787400024 | 21.67° C | 58% | 1021.8 hPa | - | - | - | - |
| 1787399124 | 20.56° C | 61% | 1021.8 hPa | - | - | - | - |
| 1787398224 | 19.44° C | 69% | 1022 hPa | - | - | - | - |
| 1787397324 | 20° C | 69% | 1021.8 hPa | - | - | - | - |
| 1787396423 | 21.11° C | 65% | 1021.8 hPa | - | - | - | - |
| 1787395523 | 20° C | 68% | 1021.7 hPa | - | - | - | - |
| 1787394623 | 18.89° C | 75% | 1021.8 hPa | - | - | - | - |
| 1787393722 | 20° C | 71% | 1021.8 hPa | - | - | - | - |
| 1787392822 | 18.89° C | 78% | 1021.9 hPa | - | - | - | - |
* Rain since midnight (hover to see other rain measurements)
** Current wind speed in m/s (hover to see current wind gust speed)